createdAt,value
2019-02-24T00:02:02.461Z,102687.00
2019-02-24T00:04:30.677Z,102694.00
2019-02-24T00:06:58.674Z,102627.00
2019-02-24T00:09:46.184Z,102674.00
2019-02-24T00:12:27.010Z,102486.00
2019-02-24T00:15:14.501Z,102491.00
2019-02-24T00:17:55.177Z,102670.00
2019-02-24T00:20:23.258Z,102661.00
2019-02-24T00:23:04.435Z,102346.00
2019-02-24T00:25:32.503Z,102669.00
2019-02-24T00:28:06.985Z,102667.00
2019-02-24T00:30:50.085Z,102346.00
2019-02-24T00:33:30.749Z,102482.00
2019-02-24T00:36:19.172Z,102486.00
2019-02-24T00:38:59.804Z,102748.00
2019-02-24T00:41:47.505Z,102676.00
2019-02-24T00:44:28.318Z,102800.00
2019-02-24T00:47:08.625Z,102750.00
2019-02-24T00:49:56.208Z,102488.00
2019-02-24T00:52:36.995Z,102667.00
2019-02-24T00:55:25.405Z,102663.00
2019-02-24T00:57:53.299Z,102657.00
2019-02-24T01:00:21.191Z,102658.00
2019-02-24T01:03:03.374Z,102720.00
2019-02-24T01:05:51.878Z,102234.00
2019-02-24T01:08:32.455Z,102650.00
2019-02-24T01:11:19.908Z,102413.00
2019-02-24T01:13:54.271Z,102661.00
2019-02-24T01:16:24.188Z,102664.00
2019-02-24T01:18:54.674Z,102664.00
2019-02-24T01:21:25.232Z,102664.00
2019-02-24T01:23:55.181Z,102677.00
2019-02-24T01:26:27.476Z,102673.00
2019-02-24T01:28:59.249Z,102675.00
2019-02-24T01:31:28.612Z,102671.00
2019-02-24T01:34:02.290Z,102668.00
2019-02-24T01:36:31.185Z,102675.00
2019-02-24T01:38:59.429Z,102672.00
2019-02-24T01:41:27.299Z,102670.00
2019-02-24T01:43:55.263Z,102672.00
2019-02-24T01:46:23.218Z,102666.00
2019-02-24T01:48:51.186Z,102665.00
2019-02-24T01:51:19.124Z,102657.00
2019-02-24T01:53:47.081Z,102666.00
2019-02-24T01:56:15.080Z,102664.00
2019-02-24T01:58:43.070Z,102666.00
2019-02-24T02:01:11.078Z,102662.00
2019-02-24T02:03:39.211Z,102654.00
2019-02-24T02:06:07.409Z,102654.00
2019-02-24T02:08:35.374Z,102660.00
2019-02-24T02:11:03.446Z,102664.00
2019-02-24T02:13:31.492Z,102661.00
2019-02-24T02:15:59.537Z,102662.00
2019-02-24T02:18:27.624Z,102659.00
2019-02-24T02:20:55.511Z,102653.00
2019-02-24T02:23:23.520Z,102656.00
2019-02-24T02:25:51.437Z,102660.00
2019-02-24T02:28:19.432Z,102659.00
2019-02-24T02:30:47.414Z,102653.00
2019-02-24T02:33:16.681Z,102655.00
2019-02-24T02:35:44.577Z,102663.00
2019-02-24T02:38:12.527Z,102652.00
2019-02-24T02:40:40.446Z,102654.00
2019-02-24T02:43:10.181Z,102647.00
2019-02-24T02:45:38.810Z,102646.00
2019-02-24T02:48:06.778Z,102644.00
2019-02-24T02:50:34.697Z,102643.00
2019-02-24T02:53:02.711Z,102638.00
2019-02-24T02:55:30.692Z,102626.00
2019-02-24T02:57:58.626Z,102628.00
2019-02-24T03:00:33.801Z,102626.00
2019-02-24T03:03:01.733Z,102623.00
2019-02-24T03:05:29.870Z,102627.00
2019-02-24T03:08:16.045Z,102625.00
2019-02-24T03:10:43.945Z,102625.00
2019-02-24T03:13:11.849Z,102642.00
2019-02-24T03:15:40.789Z,102633.00
2019-02-24T03:18:08.757Z,102642.00
2019-02-24T03:20:36.652Z,102633.00
2019-02-24T03:23:05.054Z,102629.00
2019-02-24T03:25:33.114Z,102624.00
2019-02-24T03:28:01.104Z,102634.00
2019-02-24T03:30:29.087Z,102635.00
2019-02-24T03:32:57.017Z,102638.00
2019-02-24T03:35:24.951Z,102633.00
2019-02-24T03:37:52.902Z,102632.00
2019-02-24T03:40:20.915Z,102647.00
2019-02-24T03:42:48.830Z,102642.00
2019-02-24T03:45:16.770Z,102639.00
2019-02-24T03:47:44.663Z,102642.00
2019-02-24T03:50:12.785Z,102648.00
2019-02-24T03:52:40.705Z,102638.00
2019-02-24T03:55:08.609Z,102641.00
2019-02-24T03:57:36.642Z,102635.00
2019-02-24T04:00:05.121Z,102643.00
2019-02-24T04:02:33.118Z,102633.00
2019-02-24T04:05:00.974Z,102641.00
2019-02-24T04:07:28.858Z,102634.00
2019-02-24T04:09:56.755Z,102642.00
2019-02-24T04:12:25.094Z,102647.00
2019-02-24T04:14:53.120Z,102644.00
2019-02-24T04:17:21.057Z,102634.00
2019-02-24T04:19:49.000Z,102632.00
2019-02-24T04:22:16.966Z,102632.00
2019-02-24T04:24:44.839Z,102628.00
2019-02-24T04:27:12.805Z,102641.00
2019-02-24T04:29:40.702Z,102642.00
2019-02-24T04:32:08.708Z,102643.00
2019-02-24T04:34:36.719Z,102631.00
2019-02-24T04:37:04.651Z,102628.00
2019-02-24T04:39:38.584Z,102631.00
2019-02-24T04:42:25.990Z,102625.00
2019-02-24T04:44:53.955Z,102641.00
2019-02-24T04:47:21.835Z,102633.00
2019-02-24T04:49:49.787Z,102639.00
2019-02-24T04:52:17.720Z,102638.00
2019-02-24T04:54:45.655Z,102641.00
2019-02-24T04:57:14.763Z,102633.00
2019-02-24T04:59:42.645Z,102630.00
2019-02-24T05:02:10.571Z,102638.00
2019-02-24T05:04:38.602Z,102631.00
2019-02-24T05:07:06.601Z,102627.00
2019-02-24T05:09:34.524Z,102643.00
2019-02-24T05:12:02.422Z,102633.00
2019-02-24T05:14:30.407Z,102641.00
2019-02-24T05:16:58.345Z,102634.00
2019-02-24T05:19:26.210Z,102634.00
2019-02-24T05:21:54.118Z,102640.00
2019-02-24T05:24:22.967Z,102632.00
2019-02-24T05:26:50.863Z,102635.00
2019-02-24T05:29:20.382Z,102646.00
2019-02-24T05:31:48.588Z,102645.00
2019-02-24T05:34:16.629Z,102645.00
2019-02-24T05:36:45.654Z,102646.00
2019-02-24T05:39:13.616Z,102638.00
2019-02-24T05:41:42.426Z,102644.00
2019-02-24T05:44:10.315Z,102647.00
2019-02-24T05:46:38.227Z,102650.00
2019-02-24T05:49:07.277Z,102645.00
2019-02-24T05:51:35.196Z,102645.00
2019-02-24T05:54:03.406Z,102645.00
2019-02-24T05:56:31.451Z,102651.00
2019-02-24T05:58:59.617Z,102656.00
2019-02-24T06:01:27.573Z,102650.00
2019-02-24T06:03:55.708Z,102643.00
2019-02-24T06:06:23.624Z,102653.00
2019-02-24T06:08:51.613Z,102653.00
2019-02-24T06:11:19.609Z,102661.00
2019-02-24T06:13:47.771Z,102659.00
2019-02-24T06:16:16.006Z,102654.00
2019-02-24T06:18:43.959Z,102662.00
2019-02-24T06:21:11.911Z,102667.00
2019-02-24T06:23:39.857Z,102674.00
2019-02-24T06:26:07.737Z,102678.00
2019-02-24T06:28:35.956Z,102686.00
2019-02-24T06:31:03.810Z,102687.00
2019-02-24T06:33:31.863Z,102695.00
2019-02-24T06:35:59.821Z,102696.00
2019-02-24T06:38:27.997Z,102690.00
2019-02-24T06:40:56.024Z,102690.00
2019-02-24T06:43:24.127Z,102699.00
2019-02-24T06:45:52.218Z,102685.00
2019-02-24T06:48:20.229Z,102688.00
2019-02-24T06:50:54.969Z,102680.00
2019-02-24T06:53:22.944Z,102677.00
2019-02-24T06:55:51.030Z,102681.00
2019-02-24T06:58:19.095Z,102687.00
2019-02-24T07:00:47.004Z,102682.00
2019-02-24T07:03:15.044Z,102681.00
2019-02-24T07:05:43.078Z,102684.00
2019-02-24T07:08:11.049Z,102675.00
2019-02-24T07:10:39.084Z,102681.00
2019-02-24T07:13:07.104Z,102676.00
2019-02-24T07:15:35.018Z,102669.00
2019-02-24T07:18:03.088Z,102671.00
2019-02-24T07:20:31.068Z,102674.00
2019-02-24T07:22:59.065Z,102671.00
2019-02-24T07:25:27.051Z,102679.00
2019-02-24T07:27:55.977Z,102680.00
2019-02-24T07:30:25.311Z,102678.00
2019-02-24T07:32:53.263Z,102684.00
2019-02-24T07:35:21.372Z,102672.00
2019-02-24T07:37:49.427Z,102676.00
2019-02-24T07:40:17.459Z,102672.00
2019-02-24T07:42:45.468Z,102674.00
2019-02-24T07:45:13.528Z,102672.00
2019-02-24T07:47:41.802Z,102684.00
2019-02-24T07:50:10.019Z,102679.00
2019-02-24T07:52:38.159Z,102679.00
2019-02-24T07:55:06.229Z,102683.00
2019-02-24T07:57:34.572Z,102673.00
2019-02-24T08:00:02.721Z,102671.00
2019-02-24T08:02:30.905Z,102673.00
2019-02-24T08:04:58.794Z,102675.00
2019-02-24T08:07:26.832Z,102676.00
2019-02-24T08:09:54.927Z,102665.00
2019-02-24T08:12:23.117Z,102671.00
2019-02-24T08:14:52.266Z,102683.00
2019-02-24T08:17:20.351Z,102681.00
2019-02-24T08:19:49.129Z,102680.00
2019-02-24T08:22:18.005Z,102685.00
2019-02-24T08:24:46.173Z,102681.00
2019-02-24T08:27:14.117Z,102691.00
2019-02-24T08:29:42.256Z,102686.00
2019-02-24T08:32:10.251Z,102686.00
2019-02-24T08:34:40.521Z,102675.00
2019-02-24T08:37:08.569Z,102670.00
2019-02-24T08:39:36.573Z,102675.00
2019-02-24T08:42:04.543Z,102681.00
2019-02-24T08:44:32.583Z,102689.00
2019-02-24T08:47:00.579Z,102687.00
2019-02-24T08:49:28.810Z,102696.00
2019-02-24T08:51:59.417Z,102697.00
2019-02-24T08:54:27.454Z,102697.00
2019-02-24T08:56:55.731Z,102694.00
2019-02-24T08:59:23.773Z,102702.00
2019-02-24T09:01:52.000Z,102693.00
2019-02-24T09:04:19.988Z,102696.00
2019-02-24T09:06:48.028Z,102703.00
2019-02-24T09:09:16.110Z,102704.00
2019-02-24T09:11:44.416Z,102697.00
2019-02-24T09:14:12.433Z,102698.00
2019-02-24T09:16:41.034Z,102709.00
2019-02-24T09:19:09.044Z,102707.00
2019-02-24T09:21:37.012Z,102704.00
2019-02-24T09:24:05.162Z,102699.00
2019-02-24T09:26:35.008Z,102703.00
2019-02-24T09:29:03.032Z,102705.00
2019-02-24T09:31:31.028Z,102691.00
2019-02-24T09:33:59.711Z,102703.00
2019-02-24T09:36:27.911Z,102707.00
2019-02-24T09:38:56.758Z,102702.00
2019-02-24T09:41:24.726Z,102705.00
2019-02-24T09:43:52.754Z,102712.00
2019-02-24T09:46:20.738Z,102712.00
2019-02-24T09:48:48.742Z,102712.00
2019-02-24T09:51:16.751Z,102712.00
2019-02-24T09:53:45.835Z,102717.00
2019-02-24T09:56:14.617Z,102723.00
2019-02-24T09:58:42.749Z,102719.00
2019-02-24T10:01:11.114Z,102728.00
2019-02-24T10:03:39.186Z,102724.00
2019-02-24T10:06:10.304Z,102725.00
2019-02-24T10:08:38.569Z,102727.00
2019-02-24T10:11:06.782Z,102732.00
2019-02-24T10:13:35.040Z,102725.00
2019-02-24T10:16:03.272Z,102730.00
2019-02-24T10:18:31.338Z,102730.00
2019-02-24T10:21:00.428Z,102728.00
2019-02-24T10:23:28.496Z,102734.00
2019-02-24T10:25:56.581Z,102730.00
2019-02-24T10:28:24.597Z,102730.00
2019-02-24T10:30:53.175Z,102727.00
2019-02-24T10:33:21.417Z,102732.00
2019-02-24T10:35:49.677Z,102729.00
2019-02-24T10:38:18.816Z,102721.00
2019-02-24T10:40:47.348Z,102723.00
2019-02-24T10:43:15.628Z,102732.00
2019-02-24T10:45:43.677Z,102722.00
2019-02-24T10:48:14.212Z,102732.00
2019-02-24T10:50:41.837Z,102725.00
2019-02-24T10:53:10.098Z,102720.00
2019-02-24T10:55:40.927Z,102717.00
2019-02-24T10:58:08.985Z,102724.00
2019-02-24T11:00:37.035Z,102714.00
2019-02-24T11:03:05.269Z,102712.00
2019-02-24T11:05:34.271Z,102722.00
2019-02-24T11:08:02.740Z,102711.00
2019-02-24T11:10:31.021Z,102737.00
2019-02-24T11:12:59.190Z,102713.00
2019-02-24T11:15:27.351Z,102707.00
2019-02-24T11:17:55.542Z,102712.00
2019-02-24T11:20:23.577Z,102702.00
2019-02-24T11:22:51.731Z,102712.00
2019-02-24T11:25:20.885Z,102700.00
2019-02-24T11:27:48.832Z,102701.00
2019-02-24T11:30:16.964Z,102700.00
2019-02-24T11:32:45.092Z,102697.00
2019-02-24T11:35:13.317Z,102698.00
2019-02-24T11:37:41.491Z,102697.00
2019-02-24T11:40:10.180Z,102698.00
2019-02-24T11:42:38.344Z,102699.00
2019-02-24T11:45:07.788Z,102692.00
2019-02-24T11:47:35.824Z,102678.00
2019-02-24T11:50:04.289Z,102680.00
2019-02-24T11:52:32.479Z,102685.00
2019-02-24T11:55:00.739Z,102681.00
2019-02-24T11:57:28.912Z,102676.00
2019-02-24T11:59:57.341Z,102671.00
2019-02-24T12:02:33.936Z,102670.00
2019-02-24T12:04:56.618Z,102659.00
2019-02-24T12:07:24.765Z,102672.00
2019-02-24T12:09:53.035Z,102671.00
2019-02-24T12:12:22.005Z,102666.00
2019-02-24T12:14:50.182Z,102671.00
2019-02-24T12:17:27.374Z,102655.00
2019-02-24T12:19:55.693Z,102656.00
2019-02-24T12:22:23.793Z,102647.00
2019-02-24T12:24:52.042Z,102654.00
2019-02-24T12:27:20.263Z,102667.00
2019-02-24T12:29:48.366Z,102640.00
2019-02-24T12:32:16.557Z,102646.00
2019-02-24T12:34:44.738Z,102644.00
2019-02-24T12:37:14.025Z,102650.00
2019-02-24T12:39:43.193Z,102641.00
2019-02-24T12:42:11.322Z,102639.00
2019-02-24T12:44:39.467Z,102564.00
2019-02-24T12:47:08.549Z,102627.00
2019-02-24T12:49:36.580Z,102623.00
2019-02-24T12:52:04.952Z,102609.00
2019-02-24T12:54:33.136Z,102610.00
2019-02-24T12:57:01.810Z,102615.00
2019-02-24T12:59:31.524Z,102610.00
2019-02-24T13:02:05.784Z,102601.00
2019-02-24T13:04:29.820Z,102590.00
2019-02-24T13:06:57.908Z,102588.00
2019-02-24T13:09:26.088Z,102581.00
2019-02-24T13:11:54.520Z,102578.00
2019-02-24T13:14:23.166Z,102582.00
2019-02-24T13:16:54.376Z,102586.00
2019-02-24T13:19:22.481Z,102577.00
2019-02-24T13:21:50.720Z,102584.00
2019-02-24T13:24:18.922Z,102577.00
2019-02-24T13:26:46.838Z,102583.00
2019-02-24T13:29:14.937Z,102582.00
2019-02-24T13:31:43.929Z,102568.00
2019-02-24T13:34:11.956Z,102573.00
2019-02-24T13:36:40.264Z,102575.00
2019-02-24T13:39:08.432Z,102570.00
2019-02-24T13:41:37.251Z,102569.00
2019-02-24T13:44:05.796Z,102566.00
2019-02-24T13:46:34.315Z,102565.00
2019-02-24T13:49:04.304Z,102559.00
2019-02-24T13:51:33.808Z,102561.00
2019-02-24T13:54:03.326Z,102559.00
2019-02-24T13:56:31.377Z,102554.00
2019-02-24T13:58:59.364Z,102557.00
2019-02-24T14:01:27.433Z,102543.00
2019-02-24T14:03:57.525Z,102549.00
2019-02-24T14:06:26.845Z,102537.00
2019-02-24T14:08:54.924Z,102555.00
2019-02-24T14:11:23.087Z,102552.00
2019-02-24T14:13:51.272Z,102537.00
2019-02-24T14:16:19.572Z,102538.00
2019-02-24T14:18:47.575Z,102542.00
2019-02-24T14:21:15.743Z,102536.00
2019-02-24T14:23:43.758Z,102539.00
2019-02-24T14:26:11.855Z,102544.00
2019-02-24T14:28:39.987Z,102544.00
2019-02-24T14:31:08.691Z,102534.00
2019-02-24T14:33:36.805Z,102537.00
2019-02-24T14:36:04.777Z,102535.00
2019-02-24T14:38:32.954Z,102540.00
2019-02-24T14:41:00.943Z,102540.00
2019-02-24T14:43:29.043Z,102536.00
2019-02-24T14:45:57.147Z,102541.00
2019-02-24T14:48:25.320Z,102539.00
2019-02-24T14:50:53.464Z,102543.00
2019-02-24T14:53:22.595Z,102545.00
2019-02-24T14:55:50.630Z,102552.00
2019-02-24T14:58:18.849Z,102547.00
2019-02-24T15:00:46.913Z,102560.00
2019-02-24T15:03:14.970Z,102560.00
2019-02-24T15:05:43.100Z,102559.00
2019-02-24T15:08:11.466Z,102554.00
2019-02-24T15:10:39.777Z,102552.00
2019-02-24T15:13:07.875Z,102556.00
2019-02-24T15:15:36.443Z,102552.00
2019-02-24T15:18:04.571Z,102545.00
2019-02-24T15:20:32.785Z,102567.00
2019-02-24T15:23:00.871Z,102554.00
2019-02-24T15:25:28.963Z,102556.00
2019-02-24T15:27:57.093Z,102567.00
2019-02-24T15:30:29.094Z,102567.00
2019-02-24T15:32:57.245Z,102566.00
2019-02-24T15:35:25.577Z,102566.00
2019-02-24T15:37:53.655Z,102558.00
2019-02-24T15:40:21.651Z,102566.00
2019-02-24T15:42:50.069Z,102564.00
2019-02-24T15:45:18.100Z,102561.00
2019-02-24T15:47:46.162Z,102562.00
2019-02-24T15:50:14.336Z,102556.00
2019-02-24T15:52:42.521Z,102556.00
2019-02-24T15:55:10.731Z,102561.00
2019-02-24T15:57:38.956Z,102549.00
2019-02-24T16:00:11.146Z,102556.00
2019-02-24T16:02:39.291Z,102546.00
2019-02-24T16:05:07.761Z,102561.00
2019-02-24T16:07:35.911Z,102564.00
2019-02-24T16:10:06.299Z,102556.00
2019-02-24T16:12:34.465Z,102561.00
2019-02-24T16:15:07.687Z,102555.00
2019-02-24T16:17:36.222Z,102566.00
2019-02-24T16:20:04.761Z,102556.00
2019-02-24T16:22:33.184Z,102563.00
2019-02-24T16:25:02.319Z,102562.00
2019-02-24T16:27:30.536Z,102563.00
2019-02-24T16:29:59.829Z,102565.00
2019-02-24T16:32:28.027Z,102572.00
2019-02-24T16:34:56.109Z,102564.00
2019-02-24T16:37:25.483Z,102555.00
2019-02-24T16:39:53.544Z,102547.00
2019-02-24T16:42:21.768Z,102550.00
2019-02-24T16:44:50.140Z,102551.00
2019-02-24T16:47:18.439Z,102549.00
2019-02-24T16:49:46.660Z,102549.00
2019-02-24T16:52:15.048Z,102550.00
2019-02-24T16:54:52.353Z,102552.00
2019-02-24T16:57:14.453Z,102553.00
2019-02-24T16:59:42.602Z,102553.00
2019-02-24T17:02:10.736Z,102550.00
2019-02-24T17:04:38.792Z,102549.00
2019-02-24T17:07:07.003Z,102553.00
2019-02-24T17:09:35.195Z,102554.00
2019-02-24T17:12:03.344Z,102562.00
2019-02-24T17:14:31.668Z,102552.00
2019-02-24T17:17:01.752Z,102571.00
2019-02-24T17:19:29.921Z,102570.00
2019-02-24T17:21:58.093Z,102575.00
2019-02-24T17:24:26.255Z,102571.00
2019-02-24T17:26:55.333Z,102581.00
2019-02-24T17:29:24.629Z,102582.00
2019-02-24T17:31:52.817Z,102577.00
2019-02-24T17:34:22.557Z,102578.00
2019-02-24T17:36:50.878Z,102518.00
2019-02-24T17:39:19.070Z,102585.00
2019-02-24T17:41:47.528Z,102605.00
2019-02-24T17:44:15.581Z,102602.00
2019-02-24T17:46:44.253Z,102609.00
2019-02-24T17:49:12.535Z,102602.00
2019-02-24T17:51:42.085Z,102595.00
2019-02-24T17:54:10.427Z,102607.00
2019-02-24T17:56:38.670Z,102605.00
2019-02-24T17:59:07.009Z,102604.00
2019-02-24T18:01:37.941Z,102601.00
2019-02-24T18:04:06.029Z,102605.00
2019-02-24T18:06:34.093Z,102608.00
2019-02-24T18:09:02.463Z,102607.00
2019-02-24T18:11:32.586Z,102604.00
2019-02-24T18:14:00.874Z,102608.00
2019-02-24T18:16:29.116Z,102594.00
2019-02-24T18:18:57.606Z,102599.00
2019-02-24T18:21:26.694Z,102603.00
2019-02-24T18:23:55.237Z,102599.00
2019-02-24T18:26:23.352Z,102597.00
2019-02-24T18:28:51.582Z,102599.00
2019-02-24T18:31:19.903Z,102598.00
2019-02-24T18:33:48.665Z,102593.00
2019-02-24T18:36:17.147Z,102593.00
2019-02-24T18:38:45.545Z,102594.00
2019-02-24T18:41:13.629Z,102581.00
2019-02-24T18:43:42.021Z,102584.00
2019-02-24T18:46:10.471Z,102586.00
2019-02-24T18:48:38.770Z,102597.00
2019-02-24T18:51:07.040Z,102607.00
2019-02-24T18:53:36.835Z,102602.00
2019-02-24T18:56:05.752Z,102609.00
2019-02-24T18:58:34.520Z,102586.00
2019-02-24T19:01:02.537Z,102584.00
2019-02-24T19:03:30.752Z,102594.00
2019-02-24T19:05:58.953Z,102593.00
2019-02-24T19:08:27.649Z,102596.00
2019-02-24T19:10:57.137Z,102597.00
2019-02-24T19:13:25.605Z,102601.00
2019-02-24T19:15:53.678Z,102605.00
2019-02-24T19:18:21.949Z,102602.00
2019-02-24T19:20:50.302Z,102606.00
2019-02-24T19:23:18.446Z,102609.00
2019-02-24T19:25:46.666Z,102602.00
2019-02-24T19:28:16.194Z,102616.00
2019-02-24T19:30:44.592Z,102612.00
2019-02-24T19:33:12.837Z,102602.00
2019-02-24T19:35:44.549Z,102599.00
2019-02-24T19:38:12.773Z,102611.00
2019-02-24T19:40:40.954Z,102613.00
2019-02-24T19:43:10.278Z,102607.00
2019-02-24T19:45:38.728Z,102624.00
2019-02-24T19:48:07.238Z,102619.00
2019-02-24T19:50:35.404Z,102615.00
2019-02-24T19:53:03.456Z,102622.00
2019-02-24T19:55:31.869Z,102612.00
2019-02-24T19:58:00.210Z,102618.00
2019-02-24T20:00:28.423Z,102618.00
2019-02-24T20:02:56.583Z,102615.00
2019-02-24T20:05:24.786Z,102615.00
2019-02-24T20:07:53.052Z,102631.00
2019-02-24T20:10:21.328Z,102628.00
2019-02-24T20:12:49.487Z,102628.00
2019-02-24T20:15:17.742Z,102644.00
2019-02-24T20:17:46.143Z,102645.00
2019-02-24T20:20:14.882Z,102654.00
2019-02-24T20:22:43.138Z,102658.00
2019-02-24T20:25:11.917Z,102657.00
2019-02-24T20:27:41.299Z,102639.00
2019-02-24T20:30:19.599Z,102646.00
2019-02-24T20:32:49.630Z,102649.00
2019-02-24T20:35:18.261Z,102638.00
2019-02-24T20:37:46.546Z,102639.00
2019-02-24T20:40:14.824Z,102640.00
2019-02-24T20:42:43.143Z,102642.00
2019-02-24T20:45:12.598Z,102645.00
2019-02-24T20:47:40.672Z,102649.00
2019-02-24T20:50:10.284Z,102660.00
2019-02-24T20:52:39.469Z,102655.00
2019-02-24T20:55:08.451Z,102649.00
2019-02-24T20:57:37.168Z,102653.00
2019-02-24T21:00:14.461Z,102646.00
2019-02-24T21:02:42.519Z,102640.00
2019-02-24T21:05:13.754Z,102659.00
2019-02-24T21:07:42.324Z,102644.00
2019-02-24T21:10:10.849Z,102642.00
2019-02-24T21:12:39.245Z,102660.00
2019-02-24T21:15:08.669Z,102670.00
2019-02-24T21:17:37.121Z,102668.00
2019-02-24T21:20:11.830Z,102656.00
2019-02-24T21:22:40.175Z,102653.00
2019-02-24T21:25:08.629Z,102663.00
2019-02-24T21:27:37.282Z,102660.00
2019-02-24T21:30:06.613Z,102666.00
2019-02-24T21:32:34.955Z,102662.00
2019-02-24T21:35:03.646Z,102667.00
2019-02-24T21:37:31.914Z,102658.00
2019-02-24T21:40:00.253Z,102668.00
2019-02-24T21:42:28.508Z,102655.00
2019-02-24T21:44:57.792Z,102665.00
2019-02-24T21:47:25.960Z,102667.00
2019-02-24T21:49:54.354Z,102670.00
2019-02-24T21:52:22.870Z,102670.00
2019-02-24T21:54:50.970Z,102686.00
2019-02-24T21:57:19.174Z,102678.00
2019-02-24T21:59:47.358Z,102682.00
2019-02-24T22:02:15.605Z,102683.00
2019-02-24T22:04:43.718Z,102685.00
2019-02-24T22:07:11.812Z,102673.00
2019-02-24T22:09:41.577Z,102678.00
2019-02-24T22:12:09.623Z,102639.00
2019-02-24T22:14:39.104Z,102663.00
2019-02-24T22:17:07.167Z,102657.00
2019-02-24T22:19:35.195Z,102662.00
2019-02-24T22:22:03.239Z,102661.00
2019-02-24T22:24:31.314Z,102662.00
2019-02-24T22:26:59.936Z,102658.00
2019-02-24T22:29:35.233Z,102659.00
2019-02-24T22:32:03.201Z,102655.00
2019-02-24T22:34:31.172Z,102654.00
2019-02-24T22:36:59.651Z,102653.00
2019-02-24T22:39:27.662Z,102659.00
2019-02-24T22:41:55.712Z,102661.00
2019-02-24T22:44:23.855Z,102667.00
2019-02-24T22:46:51.933Z,102669.00
2019-02-24T22:49:20.015Z,102664.00
2019-02-24T22:51:49.250Z,102663.00
2019-02-24T22:54:17.340Z,102660.00
2019-02-24T22:56:45.459Z,102659.00
2019-02-24T22:59:13.779Z,102654.00
2019-02-24T23:01:42.917Z,102646.00
2019-02-24T23:04:12.802Z,102652.00
2019-02-24T23:06:41.082Z,102650.00
2019-02-24T23:09:17.770Z,102651.00
2019-02-24T23:11:46.029Z,102643.00
2019-02-24T23:14:14.001Z,102646.00
2019-02-24T23:16:42.080Z,102649.00
2019-02-24T23:19:10.244Z,102654.00
2019-02-24T23:21:38.224Z,102652.00
2019-02-24T23:24:06.274Z,102645.00
2019-02-24T23:26:34.446Z,102300.00
2019-02-24T23:29:02.558Z,102648.00
2019-02-24T23:31:30.765Z,102655.00
2019-02-24T23:33:59.125Z,102647.00
2019-02-24T23:36:27.347Z,102662.00
2019-02-24T23:38:55.867Z,102660.00
2019-02-24T23:41:23.869Z,102660.00
2019-02-24T23:43:52.019Z,102664.00
2019-02-24T23:46:20.152Z,102661.00
2019-02-24T23:48:48.177Z,102656.00
2019-02-24T23:51:16.225Z,102681.00
2019-02-24T23:53:44.234Z,102671.00
2019-02-24T23:56:12.210Z,102673.00
2019-02-24T23:58:40.198Z,102683.00
